Newport Municipal Airport

About
Name: Newport Municipal Airport
Identifier:  ONP/KONP
Local Time:  25. Aug 19:32 PDT
Location
Statistics
Flights per Day:
0 flights
Distance: 62km (38mi)
Flights delayed:
0% (0 flights per day delayed)
Delay Average: 1400 minutes
Current Weather
 17 C (Humidity: 72%)
  5kt (9km/h / 5mph) from 60°
  16km (10 mi.)
 
 METAR KONP 251615Z AUTO 06005KT 10SM CLR 17/12 A3020 RMK AO2

Current Delays

Departures
N/A
Arrivals
N/A

Destinations

Top Destinations
Airport Flights
per week
Seats
per week
  Portland (PDX) 6 - 0 0
  Salem (SLE) 3 - 0 0
  Corvallis (CVO) 2 - 0 0
  Monterey (MRY) 1 - 0 0
  North Bend (OTH) 0 - 0 0
  Arlington (QQW) 0 - 0 0
  Lewiston (LWS) 0 - 0 0
  Idaho Falls (IDA) 0 - 0 0
  Portland (HIO) 0 - 0 0
  Eugene (EUG) 0 - 0 0
  Cheyenne (CYS) 0 - 0 0
  Seattle (BFI) 0 - 0 0
  Oakland (OAK) 0 - 0 0
  Orange County (SNA) 0 - 0 0

Airlines & Planes

Top Airlines
Airline Flights
per Day
Seats
per Day
  Ameriflight 1 -
  Empire Airlines 0 -
Nordwind Airlines 0 -
Jet Charter Inc ( Franklin Lakes Nj ) 0 -
NetJets 0 0
  Flybe Nordic 0 -
Top Plane Types
Model Flights Seats
Beech C-99 Airliner 1.0/day - 0
Cessna C208 0.8/day - 0
Aero Commander 500-S 0.1/day - 0
Pilatus PC-12 0.1/day - 0
Cessna C172 0.0/day - 0
Cessna C56X 0.0/day - -0.06666666666666667
Piper PA28-181 0.0/day - 0